Overview Statistics Trail Chart Weather Telemetry Raw packets
 

This is the latest recevied weather packets stored in our database for station/object KD7CIH. If no packets are shown the sender has not sent any weather packets the latest 10 day(s).

<< 42 43 44 45 46 47 48 >>
Time Temp. Humidity Pressure Rain* Wind** Luminosity Snow
1788407050 15.56° C 66% 1011.8 hPa 0 mm - - -
1788406746 15.56° C 64% 1011.9 hPa 0 mm - - -
1788406446 15.56° C 67% 1011.8 hPa 0 mm - - -
1788406146 15.56° C 69% 1011.8 hPa 0 mm - - -
1788405847 15.56° C 66% 1011.7 hPa 0 mm - - -
1788405545 16.11° C 65% 1011.7 hPa 0 mm - - -
1788405246 16.11° C 64% 1011.9 hPa 0 mm - - -
1788404945 16.11° C 60% 1011.8 hPa 0 mm - - -
1788404647 16.67° C 57% 1011.9 hPa 0 mm - - -
1788404487 16.67° C 58% 1011.9 hPa 0.25 mm - - -
1788404046 16.67° C 59% 1011.7 hPa 0.25 mm - - -
1788403747 16.67° C 59% 1011.7 hPa 0.25 mm - - -
1788403448 16.67° C 57% 1011.4 hPa 0.25 mm - - -
1788403148 16.67° C 55% 1011.4 hPa 0.25 mm - - -
1788402974 16.67° C 55% 1011.3 hPa 0.25 mm - - -
1788402541 17.22° C 56% 1011.3 hPa 0.25 mm - - -
1788402233 17.22° C 54% 1011.2 hPa 0.25 mm - - -
1788402054 17.22° C 52% 1011.1 hPa 0.25 mm - - -
1788401623 17.78° C 51% 1011.3 hPa 0.25 mm - - -
1788401321 17.78° C 48% 1011.7 hPa 0.25 mm - - -
1788401020 17.78° C 45% 1011.8 hPa 0.25 mm - - -
1788400720 16.67° C 54% 1011.8 hPa 0 mm - - -
1788400422 16.67° C 56% 1011.7 hPa 1.27 mm - - -
1788400120 16.11° C 59% 1011.4 hPa 1.52 mm - - -
1788399949 16.67° C 57% 1011.3 hPa 1.52 mm - - -

* Rain latest hour (hover to see other rain measurements)
** Current wind speed in m/s (hover to see current wind gust speed)